sensor_id;sensor_type;location;lat;lon;timestamp;pressure;altitude;pressure_sealevel;temperature;humidity
49297;BME280;35163;48.878;18.040;2023-01-26T00:01:18;99087.97;;;2.28;84.82
49297;BME280;35163;48.878;18.040;2023-01-26T00:03:46;99088.75;;;2.23;84.60
49297;BME280;35163;48.878;18.040;2023-01-26T00:06:15;99080.28;;;2.27;84.39
49297;BME280;35163;48.878;18.040;2023-01-26T00:08:44;99073.50;;;2.27;84.48
49297;BME280;35163;48.878;18.040;2023-01-26T00:11:13;99075.19;;;2.28;84.29
49297;BME280;35163;48.878;18.040;2023-01-26T00:13:40;99070.97;;;2.29;84.61
49297;BME280;35163;48.878;18.040;2023-01-26T00:16:09;99074.41;;;2.31;84.63
49297;BME280;35163;48.878;18.040;2023-01-26T00:18:39;99071.84;;;2.31;84.56
49297;BME280;35163;48.878;18.040;2023-01-26T00:21:08;99060.78;;;2.32;84.45
49297;BME280;35163;48.878;18.040;2023-01-26T00:23:38;99061.63;;;2.31;84.11
49297;BME280;35163;48.878;18.040;2023-01-26T00:26:07;99060.78;;;2.30;83.76
49297;BME280;35163;48.878;18.040;2023-01-26T00:28:34;99046.28;;;2.28;83.74
49297;BME280;35163;48.878;18.040;2023-01-26T00:31:05;99052.28;;;2.30;84.27
49297;BME280;35163;48.878;18.040;2023-01-26T00:33:32;99040.34;;;2.29;83.88
49297;BME280;35163;48.878;18.040;2023-01-26T00:35:59;99050.53;;;2.29;83.88
49297;BME280;35163;48.878;18.040;2023-01-26T00:38:26;99044.63;;;2.30;84.65
49297;BME280;35163;48.878;18.040;2023-01-26T00:40:52;99045.44;;;2.29;84.64
49297;BME280;35163;48.878;18.040;2023-01-26T00:43:19;99040.34;;;2.30;84.10
49297;BME280;35163;48.878;18.040;2023-01-26T00:45:46;99039.44;;;2.27;84.49
49297;BME280;35163;48.878;18.040;2023-01-26T00:48:16;99030.09;;;2.24;84.34
49297;BME280;35163;48.878;18.040;2023-01-26T00:50:42;99024.13;;;2.27;84.43
49297;BME280;35163;48.878;18.040;2023-01-26T00:53:09;99028.41;;;2.25;83.77
49297;BME280;35163;48.878;18.040;2023-01-26T00:55:39;99030.94;;;2.25;83.97
49297;BME280;35163;48.878;18.040;2023-01-26T00:58:06;99023.28;;;2.25;83.86
49297;BME280;35163;48.878;18.040;2023-01-26T01:00:35;99027.50;;;2.23;83.99
49297;BME280;35163;48.878;18.040;2023-01-26T01:03:03;99019.00;;;2.22;84.01
49297;BME280;35163;48.878;18.040;2023-01-26T01:05:30;99020.59;;;2.15;84.81
49297;BME280;35163;48.878;18.040;2023-01-26T01:07:58;99018.91;;;2.14;84.24
49297;BME280;35163;48.878;18.040;2023-01-26T01:10:24;99014.63;;;2.15;84.37
49297;BME280;35163;48.878;18.040;2023-01-26T01:12:53;99009.56;;;2.16;84.56
49297;BME280;35163;48.878;18.040;2023-01-26T01:15:19;99003.63;;;2.16;84.34
49297;BME280;35163;48.878;18.040;2023-01-26T01:17:49;99003.59;;;2.14;84.64
49297;BME280;35163;48.878;18.040;2023-01-26T01:20:16;99005.31;;;2.17;84.42
49297;BME280;35163;48.878;18.040;2023-01-26T01:22:43;99007.00;;;2.16;84.46
49297;BME280;35163;48.878;18.040;2023-01-26T01:25:12;98999.31;;;2.13;84.69
49297;BME280;35163;48.878;18.040;2023-01-26T01:27:39;99001.88;;;2.13;84.22
49297;BME280;35163;48.878;18.040;2023-01-26T01:30:06;99005.31;;;2.15;84.25
49297;BME280;35163;48.878;18.040;2023-01-26T01:32:34;99000.19;;;2.15;84.54
49297;BME280;35163;48.878;18.040;2023-01-26T01:35:02;99000.19;;;2.15;84.32
49297;BME280;35163;48.878;18.040;2023-01-26T01:37:29;98987.47;;;2.20;84.49
49297;BME280;35163;48.878;18.040;2023-01-26T01:39:56;98990.06;;;2.22;84.38
49297;BME280;35163;48.878;18.040;2023-01-26T01:42:23;98988.38;;;2.24;83.96
49297;BME280;35163;48.878;18.040;2023-01-26T01:48:00;98983.22;;;2.17;84.51
49297;BME280;35163;48.878;18.040;2023-01-26T01:50:30;98978.09;;;2.14;84.60
49297;BME280;35163;48.878;18.040;2023-01-26T01:53:09;98973.75;;;2.07;84.81
49297;BME280;35163;48.878;18.040;2023-01-26T01:55:38;98967.78;;;2.08;84.44
49297;BME280;35163;48.878;18.040;2023-01-26T01:58:05;98957.56;;;2.08;84.58
49297;BME280;35163;48.878;18.040;2023-01-26T02:00:32;98958.47;;;2.12;84.86
49297;BME280;35163;48.878;18.040;2023-01-26T02:03:05;98961.00;;;2.10;85.21
49297;BME280;35163;48.878;18.040;2023-01-26T02:06:04;98959.31;;;2.09;85.02
49297;BME280;35163;48.878;18.040;2023-01-26T02:08:40;98953.38;;;2.12;84.95
49297;BME280;35163;48.878;18.040;2023-01-26T02:11:15;98952.56;;;2.14;84.47
49297;BME280;35163;48.878;18.040;2023-01-26T02:13:46;98956.78;;;2.11;84.51
49297;BME280;35163;48.878;18.040;2023-01-26T02:16:15;98945.72;;;2.12;85.08
49297;BME280;35163;48.878;18.040;2023-01-26T02:18:43;98946.59;;;2.15;84.26
49297;BME280;35163;48.878;18.040;2023-01-26T02:21:14;98945.69;;;2.10;84.73
49297;BME280;35163;48.878;18.040;2023-01-26T02:26:11;98943.13;;;2.07;84.72
49297;BME280;35163;48.878;18.040;2023-01-26T02:28:39;98939.69;;;2.06;85.41
49297;BME280;35163;48.878;18.040;2023-01-26T02:31:07;98942.28;;;2.08;84.73
49297;BME280;35163;48.878;18.040;2023-01-26T02:33:35;98944.00;;;2.09;84.84
49297;BME280;35163;48.878;18.040;2023-01-26T02:36:02;98942.28;;;2.08;84.38
49297;BME280;35163;48.878;18.040;2023-01-26T02:38:36;98938.03;;;2.10;84.84
49297;BME280;35163;48.878;18.040;2023-01-26T02:41:07;98938.03;;;2.09;84.77
49297;BME280;35163;48.878;18.040;2023-01-26T02:43:34;98933.78;;;2.09;84.37
49297;BME280;35163;48.878;18.040;2023-01-26T02:46:01;98939.72;;;2.08;84.79
49297;BME280;35163;48.878;18.040;2023-01-26T02:48:28;98938.03;;;2.09;84.46
49297;BME280;35163;48.878;18.040;2023-01-26T02:51:13;98940.56;;;2.07;85.37
49297;BME280;35163;48.878;18.040;2023-01-26T02:53:39;98934.63;;;2.08;84.66
49297;BME280;35163;48.878;18.040;2023-01-26T02:56:09;98934.69;;;2.13;85.50
49297;BME280;35163;48.878;18.040;2023-01-26T02:58:35;98935.53;;;2.13;85.14
49297;BME280;35163;48.878;18.040;2023-01-26T03:01:02;98932.09;;;2.11;85.23
49297;BME280;35163;48.878;18.040;2023-01-26T03:03:29;98925.31;;;2.13;85.15
49297;BME280;35163;48.878;18.040;2023-01-26T03:06:11;98921.09;;;2.15;85.44
49297;BME280;35163;48.878;18.040;2023-01-26T03:08:38;98918.53;;;2.15;85.64
49297;BME280;35163;48.878;18.040;2023-01-26T03:11:06;98921.94;;;2.14;85.63
49297;BME280;35163;48.878;18.040;2023-01-26T03:13:34;98915.13;;;2.16;85.18
49297;BME280;35163;48.878;18.040;2023-01-26T03:16:00;98914.31;;;2.17;85.00
49297;BME280;35163;48.878;18.040;2023-01-26T03:18:35;98905.78;;;2.15;84.89
49297;BME280;35163;48.878;18.040;2023-01-26T03:21:20;98905.00;;;2.20;85.50
49297;BME280;35163;48.878;18.040;2023-01-26T03:24:08;98901.59;;;2.21;85.03
49297;BME280;35163;48.878;18.040;2023-01-26T03:26:54;98903.28;;;2.22;85.43
49297;BME280;35163;48.878;18.040;2023-01-26T03:29:40;98912.69;;;2.24;84.77
49297;BME280;35163;48.878;18.040;2023-01-26T03:32:06;98900.72;;;2.20;85.44
49297;BME280;35163;48.878;18.040;2023-01-26T03:34:33;98905.00;;;2.21;84.81
49297;BME280;35163;48.878;18.040;2023-01-26T03:36:59;98900.66;;;2.14;85.37
49297;BME280;35163;48.878;18.040;2023-01-26T03:39:26;98898.13;;;2.15;85.03
49297;BME280;35163;48.878;18.040;2023-01-26T03:42:11;98899.81;;;2.13;85.86
49297;BME280;35163;48.878;18.040;2023-01-26T03:44:57;98891.38;;;2.19;85.40
49297;BME280;35163;48.878;18.040;2023-01-26T03:47:42;98889.69;;;2.20;85.11
49297;BME280;35163;48.878;18.040;2023-01-26T03:50:30;98881.16;;;2.19;85.60
49297;BME280;35163;48.878;18.040;2023-01-26T03:53:17;98884.56;;;2.18;85.80
49297;BME280;35163;48.878;18.040;2023-01-26T03:56:04;98878.59;;;2.17;85.60
49297;BME280;35163;48.878;18.040;2023-01-26T03:58:55;98881.13;;;2.16;85.62
49297;BME280;35163;48.878;18.040;2023-01-26T04:01:24;98878.59;;;2.19;85.80
49297;BME280;35163;48.878;18.040;2023-01-26T04:03:55;98877.75;;;2.20;85.39
49297;BME280;35163;48.878;18.040;2023-01-26T04:06:44;98879.38;;;2.13;85.76
49297;BME280;35163;48.878;18.040;2023-01-26T04:09:30;98868.31;;;2.11;85.53
49297;BME280;35163;48.878;18.040;2023-01-26T04:11:57;98863.25;;;2.13;85.53
49297;BME280;35163;48.878;18.040;2023-01-26T04:14:24;98862.41;;;2.15;86.13
49297;BME280;35163;48.878;18.040;2023-01-26T04:17:17;98859.88;;;2.17;85.97
49297;BME280;35163;48.878;18.040;2023-01-26T04:20:04;98847.97;;;2.16;85.84
49297;BME280;35163;48.878;18.040;2023-01-26T04:22:49;98853.91;;;2.16;86.41
49297;BME280;35163;48.878;18.040;2023-01-26T04:25:20;98852.19;;;2.15;85.66
49297;BME280;35163;48.878;18.040;2023-01-26T04:27:47;98848.78;;;2.16;86.14
49297;BME280;35163;48.878;18.040;2023-01-26T04:30:15;98847.09;;;2.14;86.37
49297;BME280;35163;48.878;18.040;2023-01-26T04:32:43;98849.66;;;2.15;86.14
49297;BME280;35163;48.878;18.040;2023-01-26T04:35:11;98850.41;;;2.05;86.78
49297;BME280;35163;48.878;18.040;2023-01-26T04:37:38;98835.97;;;2.09;86.86
49297;BME280;35163;48.878;18.040;2023-01-26T04:40:06;98843.66;;;2.13;87.42
49297;BME280;35163;48.878;18.040;2023-01-26T04:42:33;98839.44;;;2.15;86.47
49297;BME280;35163;48.878;18.040;2023-01-26T04:45:00;98831.75;;;2.09;86.94
49297;BME280;35163;48.878;18.040;2023-01-26T04:47:27;98828.34;;;2.12;86.84
49297;BME280;35163;48.878;18.040;2023-01-26T04:49:54;98832.66;;;2.14;87.17
49297;BME280;35163;48.878;18.040;2023-01-26T04:52:21;98839.47;;;2.20;86.68
49297;BME280;35163;48.878;18.040;2023-01-26T04:54:48;98830.09;;;2.13;87.16
49297;BME280;35163;48.878;18.040;2023-01-26T04:57:14;98828.38;;;2.15;87.19
49297;BME280;35163;48.878;18.040;2023-01-26T04:59:41;98826.69;;;2.14;87.08
49297;BME280;35163;48.878;18.040;2023-01-26T05:02:10;98832.66;;;2.14;86.78
49297;BME280;35163;48.878;18.040;2023-01-26T05:04:36;98832.66;;;2.16;87.38
49297;BME280;35163;48.878;18.040;2023-01-26T05:07:03;98824.00;;;2.03;87.62
49297;BME280;35163;48.878;18.040;2023-01-26T05:09:30;98824.03;;;2.04;87.53
49297;BME280;35163;48.878;18.040;2023-01-26T05:11:56;98819.81;;;2.08;88.00
49297;BME280;35163;48.878;18.040;2023-01-26T05:14:43;98817.34;;;2.16;87.67
49297;BME280;35163;48.878;18.040;2023-01-26T05:17:09;98826.72;;;2.18;87.07
49297;BME280;35163;48.878;18.040;2023-01-26T05:19:36;98829.28;;;2.20;87.18
49297;BME280;35163;48.878;18.040;2023-01-26T05:22:02;98817.25;;;2.08;86.81
49297;BME280;35163;48.878;18.040;2023-01-26T05:24:29;98816.41;;;2.06;87.23
49297;BME280;35163;48.878;18.040;2023-01-26T05:26:55;98819.00;;;2.09;87.09
49297;BME280;35163;48.878;18.040;2023-01-26T05:29:42;98819.88;;;2.13;87.26
49297;BME280;35163;48.878;18.040;2023-01-26T05:32:08;98812.13;;;2.05;87.08
49297;BME280;35163;48.878;18.040;2023-01-26T05:34:35;98816.34;;;2.03;87.70
49297;BME280;35163;48.878;18.040;2023-01-26T05:37:02;98819.78;;;2.05;87.20
49297;BME280;35163;48.878;18.040;2023-01-26T05:39:28;98824.91;;;2.08;87.75
49297;BME280;35163;48.878;18.040;2023-01-26T05:41:55;98819.03;;;2.15;87.02
49297;BME280;35163;48.878;18.040;2023-01-26T05:44:22;98818.19;;;2.16;87.01
49297;BME280;35163;48.878;18.040;2023-01-26T05:46:53;98828.38;;;2.16;86.55
49297;BME280;35163;48.878;18.040;2023-01-26T05:49:20;98828.44;;;2.18;86.94
49297;BME280;35163;48.878;18.040;2023-01-26T05:51:46;98831.81;;;2.18;86.92
49297;BME280;35163;48.878;18.040;2023-01-26T05:54:15;98827.59;;;2.22;86.54
49297;BME280;35163;48.878;18.040;2023-01-26T05:56:41;98836.94;;;2.22;86.27
49297;BME280;35163;48.878;18.040;2023-01-26T05:59:08;98835.25;;;2.21;86.88
49297;BME280;35163;48.878;18.040;2023-01-26T06:01:35;98827.56;;;2.17;86.60
49297;BME280;35163;48.878;18.040;2023-01-26T06:04:04;98836.00;;;2.13;87.29
49297;BME280;35163;48.878;18.040;2023-01-26T06:06:31;98838.56;;;2.13;87.00
49297;BME280;35163;48.878;18.040;2023-01-26T06:08:58;98840.31;;;2.17;87.32
49297;BME280;35163;48.878;18.040;2023-01-26T06:11:24;98837.78;;;2.17;86.73
49297;BME280;35163;48.878;18.040;2023-01-26T06:13:51;98836.09;;;2.20;86.67
49297;BME280;35163;48.878;18.040;2023-01-26T06:16:20;98839.50;;;2.22;86.72
49297;BME280;35163;48.878;18.040;2023-01-26T06:18:47;98834.38;;;2.22;86.30
49297;BME280;35163;48.878;18.040;2023-01-26T06:21:16;98840.38;;;2.24;86.90
49297;BME280;35163;48.878;18.040;2023-01-26T06:23:43;98835.28;;;2.27;86.10
49297;BME280;35163;48.878;18.040;2023-01-26T06:26:09;98835.28;;;2.27;86.78
49297;BME280;35163;48.878;18.040;2023-01-26T06:28:36;98836.16;;;2.29;86.71
49297;BME280;35163;48.878;18.040;2023-01-26T06:31:04;98833.59;;;2.27;86.56
49297;BME280;35163;48.878;18.040;2023-01-26T06:33:33;98835.34;;;2.30;86.21
49297;BME280;35163;48.878;18.040;2023-01-26T06:36:05;98831.13;;;2.37;86.55
49297;BME280;35163;48.878;18.040;2023-01-26T06:38:31;98825.22;;;2.42;86.91
49297;BME280;35163;48.878;18.040;2023-01-26T06:40:59;98826.97;;;2.47;86.39
49297;BME280;35163;48.878;18.040;2023-01-26T06:43:29;98821.84;;;2.47;85.74
49297;BME280;35163;48.878;18.040;2023-01-26T06:45:56;98824.38;;;2.42;85.95
49297;BME280;35163;48.878;18.040;2023-01-26T06:48:25;98826.06;;;2.40;86.47
49297;BME280;35163;48.878;18.040;2023-01-26T06:50:55;98827.72;;;2.36;85.82
49297;BME280;35163;48.878;18.040;2023-01-26T06:53:33;98822.63;;;2.36;86.36
49297;BME280;35163;48.878;18.040;2023-01-26T06:56:02;98831.03;;;2.26;86.82
49297;BME280;35163;48.878;18.040;2023-01-26T06:58:28;98830.19;;;2.27;86.48
49297;BME280;35163;48.878;18.040;2023-01-26T07:00:55;98824.28;;;2.33;86.39
49297;BME280;35163;48.878;18.040;2023-01-26T07:03:22;98840.47;;;2.33;86.47
49297;BME280;35163;48.878;18.040;2023-01-26T07:05:49;98835.38;;;2.35;86.73
49297;BME280;35163;48.878;18.040;2023-01-26T07:08:16;98835.38;;;2.36;85.76
49297;BME280;35163;48.878;18.040;2023-01-26T07:10:42;98836.25;;;2.38;86.05
49297;BME280;35163;48.878;18.040;2023-01-26T07:13:12;98822.63;;;2.38;85.83
49297;BME280;35163;48.878;18.040;2023-01-26T07:15:38;98822.63;;;2.39;85.28
49297;BME280;35163;48.878;18.040;2023-01-26T07:18:05;98818.38;;;2.38;86.13
49297;BME280;35163;48.878;18.040;2023-01-26T07:20:31;98818.41;;;2.41;86.72
49297;BME280;35163;48.878;18.040;2023-01-26T07:22:59;98817.63;;;2.47;86.45
49297;BME280;35163;48.878;18.040;2023-01-26T07:25:31;98815.88;;;2.43;86.58
49297;BME280;35163;48.878;18.040;2023-01-26T07:27:58;98811.63;;;2.43;85.69
49297;BME280;35163;48.878;18.040;2023-01-26T07:30:25;98806.53;;;2.47;86.23
49297;BME280;35163;48.878;18.040;2023-01-26T07:32:58;98803.97;;;2.45;85.79
49297;BME280;35163;48.878;18.040;2023-01-26T07:35:24;98814.19;;;2.45;85.26
49297;BME280;35163;48.878;18.040;2023-01-26T07:37:51;98813.31;;;2.45;85.24
49297;BME280;35163;48.878;18.040;2023-01-26T07:40:18;98809.09;;;2.45;86.08
49297;BME280;35163;48.878;18.040;2023-01-26T07:42:44;98810.78;;;2.46;86.06
49297;BME280;35163;48.878;18.040;2023-01-26T07:45:11;98815.03;;;2.46;85.54
49297;BME280;35163;48.878;18.040;2023-01-26T07:47:40;98804.81;;;2.46;85.54
49297;BME280;35163;48.878;18.040;2023-01-26T07:50:10;98808.25;;;2.49;85.86
49297;BME280;35163;48.878;18.040;2023-01-26T07:52:37;98798.03;;;2.51;84.80
49297;BME280;35163;48.878;18.040;2023-01-26T07:55:04;98806.59;;;2.54;84.96
49297;BME280;35163;48.878;18.040;2023-01-26T07:57:31;98810.00;;;2.53;85.90
49297;BME280;35163;48.878;18.040;2023-01-26T07:59:59;98806.56;;;2.53;86.56
49297;BME280;35163;48.878;18.040;2023-01-26T08:02:28;98801.44;;;2.50;86.07
49297;BME280;35163;48.878;18.040;2023-01-26T08:04:55;98805.69;;;2.49;86.48
49297;BME280;35163;48.878;18.040;2023-01-26T08:07:21;98803.19;;;2.52;85.80
49297;BME280;35163;48.878;18.040;2023-01-26T08:09:50;98804.03;;;2.56;85.67
49297;BME280;35163;48.878;18.040;2023-01-26T08:12:20;98798.09;;;2.57;85.77
49297;BME280;35163;48.878;18.040;2023-01-26T08:14:48;98800.66;;;2.54;86.33
49297;BME280;35163;48.878;18.040;2023-01-26T08:17:15;98799.75;;;2.49;85.73
49297;BME280;35163;48.878;18.040;2023-01-26T08:19:45;98793.81;;;2.53;86.07
49297;BME280;35163;48.878;18.040;2023-01-26T08:22:12;98796.34;;;2.51;85.95
49297;BME280;35163;48.878;18.040;2023-01-26T08:24:38;98795.44;;;2.43;86.32
49297;BME280;35163;48.878;18.040;2023-01-26T08:27:05;98791.25;;;2.50;86.15
49297;BME280;35163;48.878;18.040;2023-01-26T08:29:31;98791.28;;;2.56;86.19
49297;BME280;35163;48.878;18.040;2023-01-26T08:31:58;98790.44;;;2.55;85.89
49297;BME280;35163;48.878;18.040;2023-01-26T08:34:25;98782.78;;;2.57;85.54
49297;BME280;35163;48.878;18.040;2023-01-26T08:36:51;98782.81;;;2.62;84.91
49297;BME280;35163;48.878;18.040;2023-01-26T08:39:18;98786.16;;;2.58;85.33
49297;BME280;35163;48.878;18.040;2023-01-26T08:41:45;98779.44;;;2.64;85.61
49297;BME280;35163;48.878;18.040;2023-01-26T08:44:14;98776.91;;;2.69;86.04
49297;BME280;35163;48.878;18.040;2023-01-26T08:46:42;98778.59;;;2.72;85.80
49297;BME280;35163;48.878;18.040;2023-01-26T08:49:09;98776.91;;;2.69;85.03
49297;BME280;35163;48.878;18.040;2023-01-26T08:51:41;98776.03;;;2.69;85.59
49297;BME280;35163;48.878;18.040;2023-01-26T08:54:08;98779.47;;;2.72;85.64
49297;BME280;35163;48.878;18.040;2023-01-26T08:56:34;98766.72;;;2.78;84.91
49297;BME280;35163;48.878;18.040;2023-01-26T08:59:03;98777.81;;;2.81;84.15
49297;BME280;35163;48.878;18.040;2023-01-26T09:01:33;98777.81;;;2.82;84.75
49297;BME280;35163;48.878;18.040;2023-01-26T09:03:59;98786.31;;;2.76;84.80
49297;BME280;35163;48.878;18.040;2023-01-26T09:06:28;98780.38;;;2.85;84.69
49297;BME280;35163;48.878;18.040;2023-01-26T09:08:55;98775.31;;;2.88;84.25
49297;BME280;35163;48.878;18.040;2023-01-26T09:11:22;98780.44;;;2.95;83.71
49297;BME280;35163;48.878;18.040;2023-01-26T09:13:50;98787.22;;;2.86;83.71
49297;BME280;35163;48.878;18.040;2023-01-26T09:16:22;98784.66;;;2.83;84.60
49297;BME280;35163;48.878;18.040;2023-01-26T09:18:50;98786.38;;;2.89;83.97
49297;BME280;35163;48.878;18.040;2023-01-26T09:21:18;98780.44;;;2.93;83.98
49297;BME280;35163;48.878;18.040;2023-01-26T09:23:45;98791.56;;;3.00;83.49
49297;BME280;35163;48.878;18.040;2023-01-26T09:26:11;98792.38;;;2.94;83.74
49297;BME280;35163;48.878;18.040;2023-01-26T09:28:38;98792.41;;;3.00;84.00
49297;BME280;35163;48.878;18.040;2023-01-26T09:31:06;98796.66;;;3.03;83.38
49297;BME280;35163;48.878;18.040;2023-01-26T09:33:33;98797.53;;;3.02;82.38
49297;BME280;35163;48.878;18.040;2023-01-26T09:36:09;98797.56;;;3.10;81.68
49297;BME280;35163;48.878;18.040;2023-01-26T09:38:36;98795.88;;;3.15;80.64
49297;BME280;35163;48.878;18.040;2023-01-26T09:49:23;98774.56;;;3.14;79.56
49297;BME280;35163;48.878;18.040;2023-01-26T09:51:59;98782.31;;;3.27;79.15
49297;BME280;35163;48.878;18.040;2023-01-26T09:54:43;98777.19;;;3.30;79.45
49297;BME280;35163;48.878;18.040;2023-01-26T09:57:26;98775.50;;;3.35;79.45
49297;BME280;35163;48.878;18.040;2023-01-26T10:08:19;98767.03;;;3.46;80.01
49297;BME280;35163;48.878;18.040;2023-01-26T10:10:53;98761.09;;;3.48;78.66
49297;BME280;35163;48.878;18.040;2023-01-26T10:13:20;98750.00;;;3.51;79.47
49297;BME280;35163;48.878;18.040;2023-01-26T10:15:56;98750.00;;;3.54;79.18
49297;BME280;35163;48.878;18.040;2023-01-26T10:19:01;98746.59;;;3.55;79.07
49297;BME280;35163;48.878;18.040;2023-01-26T10:21:37;98750.00;;;3.52;78.65
49297;BME280;35163;48.878;18.040;2023-01-26T10:24:10;98754.28;;;3.55;78.29
49297;BME280;35163;48.878;18.040;2023-01-26T10:26:37;98757.69;;;3.59;77.93
49297;BME280;35163;48.878;18.040;2023-01-26T10:29:04;98749.16;;;3.55;78.00
49297;BME280;35163;48.878;18.040;2023-01-26T10:31:32;98744.88;;;3.52;78.64
49297;BME280;35163;48.878;18.040;2023-01-26T10:34:14;98744.91;;;3.59;78.83
49297;BME280;35163;48.878;18.040;2023-01-26T10:36:44;98739.81;;;3.67;79.14
49297;BME280;35163;48.878;18.040;2023-01-26T10:39:13;98732.13;;;3.65;78.66
49297;BME280;35163;48.878;18.040;2023-01-26T10:41:58;98735.56;;;3.70;78.96
49297;BME280;35163;48.878;18.040;2023-01-26T10:44:31;98733.84;;;3.72;79.36
49297;BME280;35163;48.878;18.040;2023-01-26T10:47:18;98729.56;;;3.74;77.99
49297;BME280;35163;48.878;18.040;2023-01-26T10:49:47;98724.44;;;3.74;78.89
49297;BME280;35163;48.878;18.040;2023-01-26T10:52:15;98719.38;;;3.79;78.72
49297;BME280;35163;48.878;18.040;2023-01-26T10:54:50;98726.19;;;3.72;78.08
49297;BME280;35163;48.878;18.040;2023-01-26T10:57:40;98721.03;;;3.66;77.79
49297;BME280;35163;48.878;18.040;2023-01-26T11:02:53;98710.84;;;3.75;78.46
49297;BME280;35163;48.878;18.040;2023-01-26T11:05:22;98709.97;;;3.80;77.29
49297;BME280;35163;48.878;18.040;2023-01-26T11:07:54;98700.59;;;3.82;76.77
49297;BME280;35163;48.878;18.040;2023-01-26T11:10:36;98701.44;;;3.84;76.78
49297;BME280;35163;48.878;18.040;2023-01-26T11:18:45;98686.97;;;3.87;75.79
49297;BME280;35163;48.878;18.040;2023-01-26T11:21:24;98672.44;;;3.86;76.30
49297;BME280;35163;48.878;18.040;2023-01-26T11:24:03;98677.59;;;3.88;75.76
49297;BME280;35163;48.878;18.040;2023-01-26T11:35:04;98672.44;;;3.83;74.12
49297;BME280;35163;48.878;18.040;2023-01-26T11:37:51;98658.81;;;3.91;75.11
49297;BME280;35163;48.878;18.040;2023-01-26T11:51:43;98640.03;;;3.88;74.96
49297;BME280;35163;48.878;18.040;2023-01-26T11:54:27;98641.75;;;3.93;75.12
49297;BME280;35163;48.878;18.040;2023-01-26T12:00:14;98639.19;;;3.99;74.57
49297;BME280;35163;48.878;18.040;2023-01-26T12:03:02;98634.94;;;3.95;74.39
49297;BME280;35163;48.878;18.040;2023-01-26T12:05:42;98628.97;;;3.88;74.31
49297;BME280;35163;48.878;18.040;2023-01-26T12:08:18;98628.09;;;3.94;74.85
49297;BME280;35163;48.878;18.040;2023-01-26T12:10:54;98629.81;;;3.92;74.35
49297;BME280;35163;48.878;18.040;2023-01-26T12:13:37;98620.41;;;3.97;74.88
49297;BME280;35163;48.878;18.040;2023-01-26T12:16:19;98617.00;;;3.92;74.88
49297;BME280;35163;48.878;18.040;2023-01-26T12:18:58;98616.19;;;3.89;74.77
49297;BME280;35163;48.878;18.040;2023-01-26T12:21:42;98618.72;;;3.80;74.98
49297;BME280;35163;48.878;18.040;2023-01-26T12:24:15;98612.75;;;3.81;74.54
49297;BME280;35163;48.878;18.040;2023-01-26T12:27:13;98617.00;;;3.88;74.10
49297;BME280;35163;48.878;18.040;2023-01-26T12:29:49;98609.34;;;3.87;73.58
49297;BME280;35163;48.878;18.040;2023-01-26T12:32:18;98605.94;;;3.86;73.62
49297;BME280;35163;48.878;18.040;2023-01-26T12:34:46;98613.63;;;3.91;74.01
49297;BME280;35163;48.878;18.040;2023-01-26T12:37:37;98610.22;;;3.87;74.03
49297;BME280;35163;48.878;18.040;2023-01-26T12:40:42;98606.78;;;3.87;74.22
49297;BME280;35163;48.878;18.040;2023-01-26T12:43:23;98610.22;;;3.84;74.37
49297;BME280;35163;48.878;18.040;2023-01-26T12:46:00;98611.06;;;3.82;74.75
49297;BME280;35163;48.878;18.040;2023-01-26T12:49:02;98609.38;;;3.76;75.34
49297;BME280;35163;48.878;18.040;2023-01-26T12:51:38;98600.84;;;3.75;76.27
49297;BME280;35163;48.878;18.040;2023-01-26T12:56:48;98602.56;;;3.69;75.72
49297;BME280;35163;48.878;18.040;2023-01-26T13:02:30;98600.84;;;3.74;75.24
49297;BME280;35163;48.878;18.040;2023-01-26T13:05:01;98597.44;;;3.70;75.17
49297;BME280;35163;48.878;18.040;2023-01-26T13:07:35;98590.63;;;3.61;75.19
49297;BME280;35163;48.878;18.040;2023-01-26T13:15:30;98596.59;;;3.62;75.21
49297;BME280;35163;48.878;18.040;2023-01-26T13:18:03;98591.47;;;3.62;75.23
49297;BME280;35163;48.878;18.040;2023-01-26T13:26:22;98594.88;;;3.61;75.80
49297;BME280;35163;48.878;18.040;2023-01-26T13:28:51;98598.28;;;3.58;75.73
49297;BME280;35163;48.878;18.040;2023-01-26T13:31:38;98599.13;;;3.57;76.25
49297;BME280;35163;48.878;18.040;2023-01-26T13:34:07;98594.00;;;3.54;76.66
49297;BME280;35163;48.878;18.040;2023-01-26T13:36:41;98591.47;;;3.51;76.84
49297;BME280;35163;48.878;18.040;2023-01-26T13:39:17;98593.19;;;3.54;76.81
49297;BME280;35163;48.878;18.040;2023-01-26T13:41:50;98589.75;;;3.56;76.54
49297;BME280;35163;48.878;18.040;2023-01-26T13:44:20;98583.81;;;3.60;77.10
49297;BME280;35163;48.878;18.040;2023-01-26T13:46:56;98579.53;;;3.55;77.38
49297;BME280;35163;48.878;18.040;2023-01-26T13:49:35;98583.78;;;3.51;77.58
49297;BME280;35163;48.878;18.040;2023-01-26T13:52:15;98585.50;;;3.50;77.51
49297;BME280;35163;48.878;18.040;2023-01-26T13:54:43;98577.00;;;3.50;77.86
49297;BME280;35163;48.878;18.040;2023-01-26T13:57:12;98582.09;;;3.48;77.33
49297;BME280;35163;48.878;18.040;2023-01-26T13:59:49;98582.09;;;3.47;77.71
49297;BME280;35163;48.878;18.040;2023-01-26T14:02:26;98579.53;;;3.50;77.43
49297;BME280;35163;48.878;18.040;2023-01-26T14:04:54;98579.53;;;3.48;77.92
49297;BME280;35163;48.878;18.040;2023-01-26T14:07:27;98576.13;;;3.49;78.03
49297;BME280;35163;48.878;18.040;2023-01-26T14:09:58;98582.09;;;3.47;78.09
49297;BME280;35163;48.878;18.040;2023-01-26T14:12:32;98578.69;;;3.51;78.01
49297;BME280;35163;48.878;18.040;2023-01-26T14:15:05;98575.28;;;3.55;77.98
49297;BME280;35163;48.878;18.040;2023-01-26T14:17:35;98583.78;;;3.51;77.53
49297;BME280;35163;48.878;18.040;2023-01-26T14:20:34;98583.78;;;3.52;77.75
49297;BME280;35163;48.878;18.040;2023-01-26T14:23:12;98574.44;;;3.50;77.91
49297;BME280;35163;48.878;18.040;2023-01-26T14:26:01;98578.69;;;3.52;77.33
49297;BME280;35163;48.878;18.040;2023-01-26T14:28:33;98578.69;;;3.51;77.37
49297;BME280;35163;48.878;18.040;2023-01-26T14:31:04;98581.25;;;3.48;77.06
49297;BME280;35163;48.878;18.040;2023-01-26T14:33:35;98582.94;;;3.47;77.11